Αρχική σελίδα
METAR-TAF:

METAR-TAF

Αεροδρόμια :

Βερμούδες, Βερμούδες

γεωγραφικό πλάτος: 32-22N, γεωγραφικό μήκος: 064-41W, υψόμετρο: 6 μ

Παρών καιρός

Η αναφορά έγινε 1 ώρα και 4 λεπτά πριν, στις 04:55 UTC
Άνεμος 7 kt από Ν
Θερμοκρασία 20°C
Υγρασία 94%
Πίεση 1009 hPa
Ορατότητα 10 χλμ και άνω
Λίγα νέφη σε ύψος 1000 πόδια
Διάσπαρτα νέφη σε ύψος 1700 πόδια
Αρκετά νέφη σε ύψος 4000 πόδια
Αρκετά νέφη σε ύψος 30000 πόδια

METAR: TXKF 220455Z 19007KT 9999 FEW010 SCT017 BKN040 BKN300 20/19 Q1009

Χρόνος: 02:59 (05:59 UTC)

Πρόγνωση Καιρού

Η αναφορά έγινε 21 λεπτά πριν, στις 05:38 UTC
Η πρόγνωση ισχύει από τις 22 στις 06 UTC έως τις 23 στις 06 UTC
Άνεμος 18 kt από Δ/ΝΔ
Ορατότητα 10 χλμ και άνω
Λίγα νέφη σε ύψος 1000 πόδια
Διάσπαρτα νέφη σε ύψος 2000 πόδια
Αρκετά νέφη σε ύψος 30000 πόδια
Όμβροι σε κοντινή απόσταση

TAF: TXKF 220538Z 2206/2306 24018KT 9999 VCSH FEW010 SCT020 BKN300

Μετεωρολογικές αναφορές και προγνώσεις για περισσότερα από 4000 αεροδρόμια (δελτία METAR και TAF).

Οι διαθέσιμοι σταθμοί απεικονίζονται στο χάρτη με κίτρινες και κόκκινες κουκκίδες.

Μετακινήστε το ποντίκι πάνω από τις κουκκίδες για να δείτε το όνομα του σταθμού.

Στη συνέχεια, κάντε κλικ για να δείτε τις μετεωρολογικές αναφορές και τις προγνώσεις καιρού.

Για να αλλάξετε το χάρτη: κάντε κλικ στα πράσινα κουμπιά με τον μαύρο σταυρό για να ζουμάρετε, στο πράσινο κουμπί με την παύλα για να αφαιρέσετε το ζουμ ή στα πράσινα βέλη για να αντιπαραβάλλετε χάρτες.


METAR-TAF: